sensor_id;sensor_type;location;lat;lon;timestamp;pressure;altitude;pressure_sealevel;temperature;humidity
45040;BME280;30778;53.574;7.770;2023-02-22T00:00:38;101607.19;;;7.44;55.93
45040;BME280;30778;53.574;7.770;2023-02-22T00:03:14;101603.72;;;7.45;56.05
45040;BME280;30778;53.574;7.770;2023-02-22T00:05:44;101604.66;;;7.40;56.18
45040;BME280;30778;53.574;7.770;2023-02-22T00:08:13;101597.66;;;7.45;56.27
45040;BME280;30778;53.574;7.770;2023-02-22T00:10:39;101595.13;;;7.40;56.21
45040;BME280;30778;53.574;7.770;2023-02-22T00:13:06;101592.47;;;7.42;56.02
45040;BME280;30778;53.574;7.770;2023-02-22T00:15:33;101593.41;;;7.39;56.00
45040;BME280;30778;53.574;7.770;2023-02-22T00:18:02;101601.19;;;7.39;56.20
45040;BME280;30778;53.574;7.770;2023-02-22T00:20:29;101587.34;;;7.40;56.25
45040;BME280;30778;53.574;7.770;2023-02-22T00:22:57;101588.19;;;7.39;56.22
45040;BME280;30778;53.574;7.770;2023-02-22T00:25:25;101589.09;;;7.37;56.13
45040;BME280;30778;53.574;7.770;2023-02-22T00:27:51;101579.63;;;7.32;56.33
45040;BME280;30778;53.574;7.770;2023-02-22T00:30:22;101583.13;;;7.31;56.28
45040;BME280;30778;53.574;7.770;2023-02-22T00:32:49;101582.22;;;7.32;56.38
45040;BME280;30778;53.574;7.770;2023-02-22T00:35:19;101578.84;;;7.27;56.42
45040;BME280;30778;53.574;7.770;2023-02-22T00:37:50;101581.47;;;7.24;56.51
45040;BME280;30778;53.574;7.770;2023-02-22T00:40:18;101575.41;;;7.25;56.81
45040;BME280;30778;53.574;7.770;2023-02-22T00:42:47;101573.56;;;7.33;56.58
45040;BME280;30778;53.574;7.770;2023-02-22T00:45:17;101572.72;;;7.31;56.29
45040;BME280;30778;53.574;7.770;2023-02-22T00:47:43;101576.28;;;7.24;56.61
45040;BME280;30778;53.574;7.770;2023-02-22T00:50:09;101568.47;;;7.24;56.73
45040;BME280;30778;53.574;7.770;2023-02-22T00:52:38;101564.16;;;7.23;56.59
45040;BME280;30778;53.574;7.770;2023-02-22T00:55:08;101564.16;;;7.23;56.72
45040;BME280;30778;53.574;7.770;2023-02-22T00:57:37;101567.53;;;7.31;56.45
45040;BME280;30778;53.574;7.770;2023-02-22T01:00:08;101560.50;;;7.35;55.99
45040;BME280;30778;53.574;7.770;2023-02-22T01:02:41;101558.84;;;7.31;56.26
45040;BME280;30778;53.574;7.770;2023-02-22T01:05:10;101564.16;;;7.25;56.45
45040;BME280;30778;53.574;7.770;2023-02-22T01:07:37;101558.91;;;7.28;56.35
45040;BME280;30778;53.574;7.770;2023-02-22T01:10:04;101557.13;;;7.31;56.44
45040;BME280;30778;53.574;7.770;2023-02-22T01:12:33;101557.13;;;7.30;56.25
45040;BME280;30778;53.574;7.770;2023-02-22T01:15:00;101552.84;;;7.26;56.40
45040;BME280;30778;53.574;7.770;2023-02-22T01:17:28;101547.66;;;7.26;56.40
45040;BME280;30778;53.574;7.770;2023-02-22T01:19:57;101542.44;;;7.27;56.47
45040;BME280;30778;53.574;7.770;2023-02-22T01:22:22;101535.56;;;7.25;56.41
45040;BME280;30778;53.574;7.770;2023-02-22T01:24:50;101531.34;;;7.16;56.37
45040;BME280;30778;53.574;7.770;2023-02-22T01:27:18;101532.19;;;7.18;56.81
45040;BME280;30778;53.574;7.770;2023-02-22T01:29:44;101535.59;;;7.22;56.53
45040;BME280;30778;53.574;7.770;2023-02-22T01:32:09;101526.06;;;7.21;56.76
45040;BME280;30778;53.574;7.770;2023-02-22T01:34:37;101533.88;;;7.21;56.69
45040;BME280;30778;53.574;7.770;2023-02-22T01:37:02;101529.66;;;7.14;56.78
45040;BME280;30778;53.574;7.770;2023-02-22T01:39:29;101526.16;;;7.16;56.72
45040;BME280;30778;53.574;7.770;2023-02-22T01:41:55;101519.19;;;7.17;56.80
45040;BME280;30778;53.574;7.770;2023-02-22T01:46:59;101524.34;;;7.20;57.07
45040;BME280;30778;53.574;7.770;2023-02-22T01:49:36;101519.13;;;7.23;56.68
45040;BME280;30778;53.574;7.770;2023-02-22T01:52:06;101518.28;;;7.19;56.69
45040;BME280;30778;53.574;7.770;2023-02-22T01:54:48;101525.31;;;7.16;56.68
45040;BME280;30778;53.574;7.770;2023-02-22T01:59:54;101520.94;;;7.18;56.79
45040;BME280;30778;53.574;7.770;2023-02-22T02:02:21;101527.06;;;7.12;56.81
45040;BME280;30778;53.574;7.770;2023-02-22T02:04:53;101520.13;;;7.14;56.90
45040;BME280;30778;53.574;7.770;2023-02-22T02:07:21;101515.75;;;7.15;56.72
45040;BME280;30778;53.574;7.770;2023-02-22T02:10:05;101518.34;;;7.16;56.92
45040;BME280;30778;53.574;7.770;2023-02-22T02:12:35;101516.63;;;7.15;56.61
45040;BME280;30778;53.574;7.770;2023-02-22T02:17:42;101513.94;;;7.20;56.88
45040;BME280;30778;53.574;7.770;2023-02-22T02:20:28;101517.44;;;7.20;56.56
45040;BME280;30778;53.574;7.770;2023-02-22T02:23:03;101518.28;;;7.21;56.68
45040;BME280;30778;53.574;7.770;2023-02-22T02:26:00;101502.59;;;7.25;56.71
45040;BME280;30778;53.574;7.770;2023-02-22T02:37:32;101500.31;;;7.05;56.82
45040;BME280;30778;53.574;7.770;2023-02-22T02:48:20;101497.63;;;7.10;56.91
45040;BME280;30778;53.574;7.770;2023-02-22T02:50:48;101493.25;;;7.14;56.80
45040;BME280;30778;53.574;7.770;2023-02-22T02:53:20;101486.34;;;7.12;56.88
45040;BME280;30778;53.574;7.770;2023-02-22T02:55:48;101485.41;;;7.15;56.93
45040;BME280;30778;53.574;7.770;2023-02-22T02:58:20;101473.25;;;7.17;57.04
45040;BME280;30778;53.574;7.770;2023-02-22T03:00:47;101475.00;;;7.18;56.84
45040;BME280;30778;53.574;7.770;2023-02-22T03:04:04;101468.19;;;7.09;56.84
45040;BME280;30778;53.574;7.770;2023-02-22T03:18:03;101473.25;;;7.17;57.02
45040;BME280;30778;53.574;7.770;2023-02-22T03:23:02;101469.81;;;7.15;56.95
45040;BME280;30778;53.574;7.770;2023-02-22T03:25:39;101464.53;;;7.21;57.06
45040;BME280;30778;53.574;7.770;2023-02-22T03:28:09;101466.19;;;7.27;57.09
45040;BME280;30778;53.574;7.770;2023-02-22T03:30:39;101466.94;;;7.33;56.52
45040;BME280;30778;53.574;7.770;2023-02-22T03:33:15;101461.75;;;7.32;56.71
45040;BME280;30778;53.574;7.770;2023-02-22T03:35:56;101454.88;;;7.29;56.43
45040;BME280;30778;53.574;7.770;2023-02-22T03:38:26;101452.28;;;7.28;56.65
45040;BME280;30778;53.574;7.770;2023-02-22T03:40:57;101454.03;;;7.27;56.54
45040;BME280;30778;53.574;7.770;2023-02-22T03:43:28;101452.44;;;7.20;56.53
45040;BME280;30778;53.574;7.770;2023-02-22T03:45:57;101447.25;;;7.17;56.68
45040;BME280;30778;53.574;7.770;2023-02-22T03:48:25;101447.25;;;7.17;56.71
45040;BME280;30778;53.574;7.770;2023-02-22T03:50:53;101451.63;;;7.15;56.76
45040;BME280;30778;53.574;7.770;2023-02-22T03:53:22;101444.66;;;7.17;57.10
45040;BME280;30778;53.574;7.770;2023-02-22T03:55:50;101453.25;;;7.22;56.62
45040;BME280;30778;53.574;7.770;2023-02-22T03:58:21;101449.00;;;7.17;56.82
45040;BME280;30778;53.574;7.770;2023-02-22T04:00:51;101449.00;;;7.18;56.78
45040;BME280;30778;53.574;7.770;2023-02-22T04:03:19;101449.16;;;7.09;56.79
45040;BME280;30778;53.574;7.770;2023-02-22T04:05:45;101450.78;;;7.13;57.06
45040;BME280;30778;53.574;7.770;2023-02-22T04:08:10;101449.03;;;7.15;57.04
45040;BME280;30778;53.574;7.770;2023-02-22T04:10:36;101452.53;;;7.14;56.88
45040;BME280;30778;53.574;7.770;2023-02-22T04:13:03;101445.63;;;7.11;57.06
45040;BME280;30778;53.574;7.770;2023-02-22T04:15:32;101442.06;;;7.17;56.99
45040;BME280;30778;53.574;7.770;2023-02-22T04:18:02;101453.38;;;7.13;56.83
45040;BME280;30778;53.574;7.770;2023-02-22T04:20:28;101451.59;;;7.17;57.10
45040;BME280;30778;53.574;7.770;2023-02-22T04:23:07;101446.47;;;7.14;56.80
45040;BME280;30778;53.574;7.770;2023-02-22T04:25:38;101445.59;;;7.13;56.77
45040;BME280;30778;53.574;7.770;2023-02-22T04:28:17;101440.44;;;7.10;56.78
45040;BME280;30778;53.574;7.770;2023-02-22T04:30:51;101432.59;;;7.13;56.86
45040;BME280;30778;53.574;7.770;2023-02-22T04:33:18;101434.56;;;6.99;56.97
45040;BME280;30778;53.574;7.770;2023-02-22T04:35:44;101437.09;;;7.03;57.23
45040;BME280;30778;53.574;7.770;2023-02-22T04:38:12;101434.72;;;6.91;57.31
45040;BME280;30778;53.574;7.770;2023-02-22T04:40:41;101427.69;;;6.96;57.32
45040;BME280;30778;53.574;7.770;2023-02-22T04:43:09;101423.56;;;6.83;57.53
45040;BME280;30778;53.574;7.770;2023-02-22T04:45:35;101424.41;;;6.83;57.36
45040;BME280;30778;53.574;7.770;2023-02-22T04:48:02;101416.59;;;6.86;57.54
45040;BME280;30778;53.574;7.770;2023-02-22T04:50:28;101416.53;;;6.89;57.05
45040;BME280;30778;53.574;7.770;2023-02-22T04:52:53;101413.03;;;6.90;57.24
45040;BME280;30778;53.574;7.770;2023-02-22T04:55:19;101417.22;;;7.01;56.77
45040;BME280;30778;53.574;7.770;2023-02-22T04:57:47;101412.03;;;6.99;56.74
45040;BME280;30778;53.574;7.770;2023-02-22T05:00:28;101414.72;;;6.95;56.99
45040;BME280;30778;53.574;7.770;2023-02-22T05:02:58;101411.25;;;6.96;56.97
45040;BME280;30778;53.574;7.770;2023-02-22T05:05:26;101402.47;;;7.00;57.04
45040;BME280;30778;53.574;7.770;2023-02-22T05:07:54;101408.81;;;6.83;57.30
45040;BME280;30778;53.574;7.770;2023-02-22T05:10:20;101406.22;;;6.83;57.43
45040;BME280;30778;53.574;7.770;2023-02-22T05:12:48;101395.91;;;6.77;57.40
45040;BME280;30778;53.574;7.770;2023-02-22T05:15:16;101395.97;;;6.74;57.57
45040;BME280;30778;53.574;7.770;2023-02-22T05:17:42;101393.13;;;6.91;56.84
45040;BME280;30778;53.574;7.770;2023-02-22T05:20:31;101393.16;;;6.88;57.27
45040;BME280;30778;53.574;7.770;2023-02-22T05:22:58;101393.06;;;6.93;57.09
45040;BME280;30778;53.574;7.770;2023-02-22T05:25:25;101394.91;;;6.86;56.68
45040;BME280;30778;53.574;7.770;2023-02-22T05:27:52;101389.94;;;6.74;57.44
45040;BME280;30778;53.574;7.770;2023-02-22T05:30:21;101394.22;;;6.78;57.23
45040;BME280;30778;53.574;7.770;2023-02-22T05:32:49;101388.88;;;6.85;57.06
45040;BME280;30778;53.574;7.770;2023-02-22T05:35:15;101385.44;;;6.83;57.02
45040;BME280;30778;53.574;7.770;2023-02-22T05:37:43;101390.63;;;6.83;57.03
45040;BME280;30778;53.574;7.770;2023-02-22T05:40:20;101386.34;;;6.82;57.23
45040;BME280;30778;53.574;7.770;2023-02-22T05:42:47;101390.69;;;6.80;57.23
45040;BME280;30778;53.574;7.770;2023-02-22T05:45:14;101384.88;;;6.64;57.42
45040;BME280;30778;53.574;7.770;2023-02-22T05:47:40;101377.25;;;6.54;57.69
45040;BME280;30778;53.574;7.770;2023-02-22T05:50:06;101377.25;;;6.55;58.01
45040;BME280;30778;53.574;7.770;2023-02-22T05:52:37;101378.81;;;6.64;57.34
45040;BME280;30778;53.574;7.770;2023-02-22T05:55:07;101382.25;;;6.66;57.62
45040;BME280;30778;53.574;7.770;2023-02-22T05:57:35;101382.22;;;6.69;57.56
45040;BME280;30778;53.574;7.770;2023-02-22T06:00:04;101374.38;;;6.70;57.05
45040;BME280;30778;53.574;7.770;2023-02-22T06:02:40;101378.72;;;6.68;57.10
45040;BME280;30778;53.574;7.770;2023-02-22T06:05:06;101372.81;;;6.60;57.24
45040;BME280;30778;53.574;7.770;2023-02-22T06:07:31;101370.09;;;6.68;57.06
45040;BME280;30778;53.574;7.770;2023-02-22T06:09:59;101371.16;;;6.55;57.50
45040;BME280;30778;53.574;7.770;2023-02-22T06:12:27;101365.09;;;6.56;57.19
45040;BME280;30778;53.574;7.770;2023-02-22T06:14:53;101371.00;;;6.65;57.25
45040;BME280;30778;53.574;7.770;2023-02-22T06:17:21;101369.25;;;6.67;56.71
45040;BME280;30778;53.574;7.770;2023-02-22T06:19:46;101370.16;;;6.65;57.09
45040;BME280;30778;53.574;7.770;2023-02-22T06:22:18;101362.28;;;6.69;56.85
45040;BME280;30778;53.574;7.770;2023-02-22T06:24:52;101370.84;;;6.75;56.43
45040;BME280;30778;53.574;7.770;2023-02-22T06:27:20;101369.00;;;6.83;56.70
45040;BME280;30778;53.574;7.770;2023-02-22T06:29:46;101375.09;;;6.80;56.34
45040;BME280;30778;53.574;7.770;2023-02-22T06:32:12;101368.16;;;6.81;56.25
45040;BME280;30778;53.574;7.770;2023-02-22T06:34:38;101368.09;;;6.85;56.26
45040;BME280;30778;53.574;7.770;2023-02-22T06:37:07;101367.34;;;6.77;56.32
45040;BME280;30778;53.574;7.770;2023-02-22T06:39:33;101369.16;;;6.72;56.60
45040;BME280;30778;53.574;7.770;2023-02-22T06:41:59;101363.06;;;6.75;56.64
45040;BME280;30778;53.574;7.770;2023-02-22T06:44:24;101366.50;;;6.75;56.09
45040;BME280;30778;53.574;7.770;2023-02-22T06:46:50;101363.88;;;6.80;56.27
45040;BME280;30778;53.574;7.770;2023-02-22T06:49:21;101362.06;;;6.83;56.14
45040;BME280;30778;53.574;7.770;2023-02-22T06:51:47;101369.81;;;6.86;56.02
45040;BME280;30778;53.574;7.770;2023-02-22T06:54:13;101375.78;;;6.91;55.94
45040;BME280;30778;53.574;7.770;2023-02-22T06:56:38;101367.94;;;6.95;55.93
45040;BME280;30778;53.574;7.770;2023-02-22T06:59:04;101368.75;;;6.98;55.96
45040;BME280;30778;53.574;7.770;2023-02-22T07:01:29;101369.66;;;6.96;55.80
45040;BME280;30778;53.574;7.770;2023-02-22T07:03:55;101367.91;;;6.98;55.80
45040;BME280;30778;53.574;7.770;2023-02-22T07:06:21;101364.56;;;6.89;55.93
45040;BME280;30778;53.574;7.770;2023-02-22T07:08:47;101360.28;;;6.87;55.92
45040;BME280;30778;53.574;7.770;2023-02-22T07:11:12;101362.97;;;6.79;56.29
45040;BME280;30778;53.574;7.770;2023-02-22T07:13:38;101362.94;;;6.82;55.96
45040;BME280;30778;53.574;7.770;2023-02-22T07:16:06;101366.25;;;6.90;55.41
45040;BME280;30778;53.574;7.770;2023-02-22T07:18:34;101361.13;;;6.87;55.78
45040;BME280;30778;53.574;7.770;2023-02-22T07:20:59;101364.72;;;6.80;56.31
45040;BME280;30778;53.574;7.770;2023-02-22T07:23:25;101355.22;;;6.78;55.91
45040;BME280;30778;53.574;7.770;2023-02-22T07:25:51;101353.44;;;6.81;56.05
45040;BME280;30778;53.574;7.770;2023-02-22T07:28:19;101362.88;;;6.85;55.68
45040;BME280;30778;53.574;7.770;2023-02-22T07:30:47;101354.06;;;6.96;55.49
45040;BME280;30778;53.574;7.770;2023-02-22T07:33:15;101346.38;;;6.89;55.66
45040;BME280;30778;53.574;7.770;2023-02-22T07:35:45;101350.81;;;6.83;55.88
45040;BME280;30778;53.574;7.770;2023-02-22T07:38:12;101347.03;;;7.01;55.59
45040;BME280;30778;53.574;7.770;2023-02-22T07:40:38;101348.53;;;7.14;55.49
45040;BME280;30778;53.574;7.770;2023-02-22T07:45:37;101348.66;;;7.06;55.16
45040;BME280;30778;53.574;7.770;2023-02-22T07:48:09;101353.84;;;7.06;55.32
45040;BME280;30778;53.574;7.770;2023-02-22T07:50:36;101349.50;;;7.08;55.44
45040;BME280;30778;53.574;7.770;2023-02-22T07:53:05;101352.63;;;7.27;55.02
45040;BME280;30778;53.574;7.770;2023-02-22T07:55:33;101344.81;;;7.29;54.96
45040;BME280;30778;53.574;7.770;2023-02-22T07:58:01;101349.84;;;7.37;54.56
45040;BME280;30778;53.574;7.770;2023-02-22T08:00:35;101336.75;;;7.41;54.88
45040;BME280;30778;53.574;7.770;2023-02-22T08:03:05;101343.81;;;7.36;54.78
45040;BME280;30778;53.574;7.770;2023-02-22T08:05:32;101344.66;;;7.37;54.29
45040;BME280;30778;53.574;7.770;2023-02-22T08:07:57;101342.22;;;7.29;54.85
45040;BME280;30778;53.574;7.770;2023-02-22T08:10:24;101347.31;;;7.33;54.66
45040;BME280;30778;53.574;7.770;2023-02-22T08:12:51;101338.06;;;7.17;54.82
45040;BME280;30778;53.574;7.770;2023-02-22T08:15:27;101326.56;;;7.30;54.45
45040;BME280;30778;53.574;7.770;2023-02-22T08:17:56;101322.88;;;7.42;54.63
45040;BME280;30778;53.574;7.770;2023-02-22T08:20:23;101326.94;;;7.57;54.40
45040;BME280;30778;53.574;7.770;2023-02-22T08:22:48;101326.06;;;7.58;54.13
45040;BME280;30778;53.574;7.770;2023-02-22T08:25:16;101315.00;;;7.47;54.11
45040;BME280;30778;53.574;7.770;2023-02-22T08:27:43;101322.50;;;7.62;53.96
45040;BME280;30778;53.574;7.770;2023-02-22T08:30:17;101322.06;;;7.84;53.94
45040;BME280;30778;53.574;7.770;2023-02-22T08:32:47;101317.97;;;8.11;53.40
45040;BME280;30778;53.574;7.770;2023-02-22T08:35:15;101322.16;;;7.78;53.95
45040;BME280;30778;53.574;7.770;2023-02-22T08:37:42;101319.19;;;7.96;52.96
45040;BME280;30778;53.574;7.770;2023-02-22T08:40:09;101321.63;;;7.62;53.81
45040;BME280;30778;53.574;7.770;2023-02-22T08:42:34;101314.47;;;7.73;53.66
45040;BME280;30778;53.574;7.770;2023-02-22T08:45:00;101321.41;;;7.72;53.57
45040;BME280;30778;53.574;7.770;2023-02-22T08:47:28;101318.31;;;7.95;53.07
45040;BME280;30778;53.574;7.770;2023-02-22T08:49:53;101313.22;;;7.91;52.87
45040;BME280;30778;53.574;7.770;2023-02-22T08:52:19;101306.00;;;7.63;53.64
45040;BME280;30778;53.574;7.770;2023-02-22T08:54:48;101315.91;;;7.88;52.78
45040;BME280;30778;53.574;7.770;2023-02-22T08:57:16;101304.44;;;7.53;53.31
45040;BME280;30778;53.574;7.770;2023-02-22T08:59:41;101315.28;;;7.75;53.12
45040;BME280;30778;53.574;7.770;2023-02-22T09:02:17;101318.28;;;7.99;52.52
45040;BME280;30778;53.574;7.770;2023-02-22T09:04:44;101320.63;;;8.09;51.92
45040;BME280;30778;53.574;7.770;2023-02-22T09:07:13;101314.34;;;8.18;52.35
45040;BME280;30778;53.574;7.770;2023-02-22T09:09:38;101312.25;;;8.34;51.58
45040;BME280;30778;53.574;7.770;2023-02-22T09:12:04;101309.72;;;8.31;51.47
45040;BME280;30778;53.574;7.770;2023-02-22T09:14:32;101308.88;;;8.30;51.39
45040;BME280;30778;53.574;7.770;2023-02-22T09:16:58;101305.91;;;8.46;51.22
45040;BME280;30778;53.574;7.770;2023-02-22T09:19:23;101301.75;;;8.00;52.50
45040;BME280;30778;53.574;7.770;2023-02-22T09:21:53;101299.38;;;8.28;51.71
45040;BME280;30778;53.574;7.770;2023-02-22T09:24:19;101294.09;;;8.31;51.65
45040;BME280;30778;53.574;7.770;2023-02-22T09:26:46;101287.53;;;8.52;51.58
45040;BME280;30778;53.574;7.770;2023-02-22T09:29:12;101284.13;;;8.48;51.42
45040;BME280;30778;53.574;7.770;2023-02-22T09:31:38;101282.63;;;8.38;51.28
45040;BME280;30778;53.574;7.770;2023-02-22T09:34:07;101284.25;;;8.78;50.34
45040;BME280;30778;53.574;7.770;2023-02-22T09:36:44;101282.44;;;8.46;51.14
45040;BME280;30778;53.574;7.770;2023-02-22T09:39:11;101285.16;;;8.41;50.68
45040;BME280;30778;53.574;7.770;2023-02-22T09:47:13;101270.41;;;8.76;49.88
45040;BME280;30778;53.574;7.770;2023-02-22T09:49:53;101270.16;;;8.51;50.45
45040;BME280;30778;53.574;7.770;2023-02-22T09:52:29;101260.19;;;8.67;49.94
45040;BME280;30778;53.574;7.770;2023-02-22T09:55:16;101256.03;;;8.60;50.04
45040;BME280;30778;53.574;7.770;2023-02-22T09:57:46;101266.81;;;8.46;50.14
45040;BME280;30778;53.574;7.770;2023-02-22T10:00:15;101256.50;;;8.77;49.68
45040;BME280;30778;53.574;7.770;2023-02-22T10:06:03;101258.38;;;8.72;49.90
45040;BME280;30778;53.574;7.770;2023-02-22T10:08:31;101255.31;;;8.89;49.48
45040;BME280;30778;53.574;7.770;2023-02-22T10:16:55;101248.56;;;9.13;48.14
45040;BME280;30778;53.574;7.770;2023-02-22T10:19:31;101253.44;;;9.25;48.23
45040;BME280;30778;53.574;7.770;2023-02-22T10:22:24;101248.97;;;8.65;48.81
45040;BME280;30778;53.574;7.770;2023-02-22T10:24:59;101248.53;;;8.83;48.24
45040;BME280;30778;53.574;7.770;2023-02-22T10:27:39;101248.97;;;8.65;48.82
45040;BME280;30778;53.574;7.770;2023-02-22T10:30:07;101253.19;;;8.69;48.67
45040;BME280;30778;53.574;7.770;2023-02-22T10:32:47;101258.09;;;8.47;48.94
45040;BME280;30778;53.574;7.770;2023-02-22T10:35:26;101252.63;;;8.22;49.40
45040;BME280;30778;53.574;7.770;2023-02-22T10:37:56;101253.91;;;8.41;49.09
45040;BME280;30778;53.574;7.770;2023-02-22T10:40:25;101249.59;;;8.40;48.74
45040;BME280;30778;53.574;7.770;2023-02-22T10:42:59;101245.72;;;8.89;48.69
45040;BME280;30778;53.574;7.770;2023-02-22T10:45:30;101247.72;;;9.12;48.23
45040;BME280;30778;53.574;7.770;2023-02-22T10:48:11;101240.91;;;9.38;47.33
45040;BME280;30778;53.574;7.770;2023-02-22T10:50:41;101242.50;;;9.44;46.66
45040;BME280;30778;53.574;7.770;2023-02-22T10:53:08;101227.63;;;8.85;47.13
45040;BME280;30778;53.574;7.770;2023-02-22T10:55:34;101235.81;;;9.33;47.01
45040;BME280;30778;53.574;7.770;2023-02-22T10:58:05;101226.06;;;9.10;47.06
45040;BME280;30778;53.574;7.770;2023-02-22T11:00:34;101227.19;;;9.31;46.66
45040;BME280;30778;53.574;7.770;2023-02-22T11:03:21;101223.19;;;9.19;46.49
45040;BME280;30778;53.574;7.770;2023-02-22T11:05:48;101229.44;;;9.44;46.65
45040;BME280;30778;53.574;7.770;2023-02-22T11:08:24;101221.50;;;9.47;46.19
45040;BME280;30778;53.574;7.770;2023-02-22T11:10:55;101212.41;;;9.60;46.73
45040;BME280;30778;53.574;7.770;2023-02-22T11:13:30;101217.41;;;9.38;46.04
45040;BME280;30778;53.574;7.770;2023-02-22T11:16:03;101215.91;;;9.31;46.28
45040;BME280;30778;53.574;7.770;2023-02-22T11:18:41;101211.09;;;9.47;45.90
45040;BME280;30778;53.574;7.770;2023-02-22T11:21:09;101209.09;;;9.25;45.77
45040;BME280;30778;53.574;7.770;2023-02-22T11:23:38;101205.88;;;9.17;45.53
45040;BME280;30778;53.574;7.770;2023-02-22T11:26:10;101207.66;;;9.15;46.40
45040;BME280;30778;53.574;7.770;2023-02-22T11:28:41;101197.31;;;9.42;45.95
45040;BME280;30778;53.574;7.770;2023-02-22T11:31:17;101192.00;;;9.45;46.13
45040;BME280;30778;53.574;7.770;2023-02-22T11:33:55;101198.22;;;9.40;45.50
45040;BME280;30778;53.574;7.770;2023-02-22T11:38:55;101191.31;;;8.79;47.15
45040;BME280;30778;53.574;7.770;2023-02-22T11:41:29;101190.53;;;9.06;46.68
45040;BME280;30778;53.574;7.770;2023-02-22T11:46:40;101192.56;;;9.26;46.53
45040;BME280;30778;53.574;7.770;2023-02-22T11:49:09;101180.34;;;9.28;46.60
45040;BME280;30778;53.574;7.770;2023-02-22T11:51:47;101176.38;;;9.43;46.72
45040;BME280;30778;53.574;7.770;2023-02-22T11:54:24;101171.91;;;9.48;46.51
45040;BME280;30778;53.574;7.770;2023-02-22T11:57:13;101174.84;;;9.37;46.11
45040;BME280;30778;53.574;7.770;2023-02-22T12:16:31;101155.66;;;9.38;46.52
45040;BME280;30778;53.574;7.770;2023-02-22T12:21:48;101143.41;;;9.40;46.31
45040;BME280;30778;53.574;7.770;2023-02-22T12:24:24;101127.47;;;9.23;46.05
45040;BME280;30778;53.574;7.770;2023-02-22T12:27:17;101141.63;;;9.43;45.67
45040;BME280;30778;53.574;7.770;2023-02-22T12:29:54;101131.38;;;9.36;46.00
45040;BME280;30778;53.574;7.770;2023-02-22T12:35:02;101138.34;;;9.64;45.88
45040;BME280;30778;53.574;7.770;2023-02-22T12:37:55;101137.47;;;9.37;46.00
45040;BME280;30778;53.574;7.770;2023-02-22T12:43:14;101132.81;;;9.47;46.88
45040;BME280;30778;53.574;7.770;2023-02-22T12:56:54;101114.22;;;9.86;45.19
45040;BME280;30778;53.574;7.770;2023-02-22T13:04:53;101122.00;;;10.12;45.11
45040;BME280;30778;53.574;7.770;2023-02-22T13:10:34;101115.81;;;10.40;44.77
45040;BME280;30778;53.574;7.770;2023-02-22T13:20:56;101128.69;;;10.46;45.18
45040;BME280;30778;53.574;7.770;2023-02-22T13:24:01;101111.81;;;9.50;47.24
45040;BME280;30778;53.574;7.770;2023-02-22T13:26:38;101111.81;;;10.05;46.66
45040;BME280;30778;53.574;7.770;2023-02-22T13:29:12;101106.97;;;10.68;44.51
45040;BME280;30778;53.574;7.770;2023-02-22T13:53:49;101080.38;;;10.56;44.88
45040;BME280;30778;53.574;7.770;2023-02-22T13:56:19;101075.53;;;10.22;45.56
45040;BME280;30778;53.574;7.770;2023-02-22T13:58:56;101079.63;;;10.04;46.32
45040;BME280;30778;53.574;7.770;2023-02-22T14:01:46;101079.47;;;9.84;46.80
45040;BME280;30778;53.574;7.770;2023-02-22T14:04:40;101076.63;;;9.90;46.86
45040;BME280;30778;53.574;7.770;2023-02-22T14:09:53;101082.75;;;9.89;46.92
45040;BME280;30778;53.574;7.770;2023-02-22T14:17:36;101084.78;;;9.80;46.56
45040;BME280;30778;53.574;7.770;2023-02-22T14:25:49;101076.16;;;10.29;46.40
45040;BME280;30778;53.574;7.770;2023-02-22T14:31:17;101083.78;;;10.10;46.74
45040;BME280;30778;53.574;7.770;2023-02-22T14:34:07;101082.22;;;10.29;46.19
45040;BME280;30778;53.574;7.770;2023-02-22T14:36:53;101082.13;;;10.32;46.09
45040;BME280;30778;53.574;7.770;2023-02-22T14:39:34;101090.84;;;9.81;47.32
45040;BME280;30778;53.574;7.770;2023-02-22T14:42:32;101089.06;;;10.08;46.82
45040;BME280;30778;53.574;7.770;2023-02-22T14:50:41;101070.47;;;10.41;45.87
45040;BME280;30778;53.574;7.770;2023-02-22T14:55:52;101077.81;;;10.06;46.63
45040;BME280;30778;53.574;7.770;2023-02-22T14:58:23;101083.78;;;10.10;46.42
45040;BME280;30778;53.574;7.770;2023-02-22T15:00:51;101085.00;;;9.46;48.31
45040;BME280;30778;53.574;7.770;2023-02-22T15:05:46;101093.41;;;10.08;46.88
45040;BME280;30778;53.574;7.770;2023-02-22T15:08:16;101092.72;;;9.76;47.82
45040;BME280;30778;53.574;7.770;2023-02-22T15:10:44;101094.34;;;10.07;47.25
45040;BME280;30778;53.574;7.770;2023-02-22T15:13:25;101085.75;;;10.03;47.53
45040;BME280;30778;53.574;7.770;2023-02-22T15:15:56;101082.69;;;10.17;47.23
45040;BME280;30778;53.574;7.770;2023-02-22T15:18:29;101080.47;;;9.78;47.77
45040;BME280;30778;53.574;7.770;2023-02-22T15:21:02;101080.44;;;9.53;48.53
45040;BME280;30778;53.574;7.770;2023-02-22T15:23:38;101085.97;;;9.97;47.30
45040;BME280;30778;53.574;7.770;2023-02-22T15:26:06;101083.13;;;10.03;47.04
45040;BME280;30778;53.574;7.770;2023-02-22T15:28:32;101079.78;;;9.99;47.28
45040;BME280;30778;53.574;7.770;2023-02-22T15:31:25;101081.75;;;9.93;47.26
45040;BME280;30778;53.574;7.770;2023-02-22T15:33:52;101085.25;;;9.92;47.49
45040;BME280;30778;53.574;7.770;2023-02-22T15:36:20;101086.13;;;9.92;47.50
45040;BME280;30778;53.574;7.770;2023-02-22T15:38:49;101089.75;;;9.88;47.71
45040;BME280;30778;53.574;7.770;2023-02-22T15:41:21;101083.94;;;9.78;47.55
45040;BME280;30778;53.574;7.770;2023-02-22T15:44:00;101095.53;;;9.70;48.24
45040;BME280;30778;53.574;7.770;2023-02-22T15:46:26;101095.28;;;9.77;48.08
45040;BME280;30778;53.574;7.770;2023-02-22T15:51:32;101093.97;;;9.64;48.09
45040;BME280;30778;53.574;7.770;2023-02-22T15:53:59;101085.34;;;9.62;48.21
45040;BME280;30778;53.574;7.770;2023-02-22T15:56:28;101092.06;;;9.69;47.83
45040;BME280;30778;53.574;7.770;2023-02-22T15:59:08;101093.88;;;9.67;47.99
45040;BME280;30778;53.574;7.770;2023-02-22T16:01:37;101080.44;;;9.53;48.58
45040;BME280;30778;53.574;7.770;2023-02-22T16:04:04;101076.31;;;9.46;48.81